KEWB/EWB METAR and TAF weather

Enter ICAO airport designator
Station Type Date Time Source
KEWB METAR 2021/07/28 04:53 UTC NOAA

KEWB 280453Z AUTO 35004KT 10SM SCT110 20/17 A2991 RMK AO2 SLP127 T02000172 403170161


Station Type Date Time Source
KEWB Decoded METAR 2021/07/28 04:53 UTC NOAA

NEW BEDFORD REGIONAL AIRPORT, MA, United States (KEWB) 41-41N 070-58W 23M
Jul 28, 2021 - 12:53 AM EDT / 2021.07.28 0453 UTC
Wind: from the N (350 degrees) at 5 MPH (4 KT):0
Visibility: 10 mile(s):0
Sky conditions: partly cloudy
Temperature: 68.0 F (20.0 C)
Dew Point: 63.0 F (17.2 C)
Relative Humidity: 83%
Pressure (altimeter): 29.91 in. Hg (1012 hPa)
ob: KEWB 280453Z AUTO 35004KT 10SM SCT110 20/17 A2991 RMK AO2 SLP127 T02000172 403170161
cycle: 5

Station Type Date Time Source
KEWB TAF UTC NOAA

Error!

Example: see airport list